createdAt,value
2018-09-25T00:01:20.540Z,0.70
2018-09-25T00:03:54.578Z,0.70
2018-09-25T00:06:28.405Z,0.70
2018-09-25T00:09:02.260Z,0.70
2018-09-25T00:11:36.150Z,0.70
2018-09-25T00:14:10.158Z,0.70
2018-09-25T00:16:44.107Z,0.70
2018-09-25T00:19:18.055Z,0.77
2018-09-25T00:21:51.861Z,0.70
2018-09-25T00:24:25.716Z,0.70
2018-09-25T00:27:00.364Z,0.70
2018-09-25T00:29:34.350Z,0.70
2018-09-25T00:32:09.100Z,0.70
2018-09-25T00:34:43.143Z,0.70
2018-09-25T00:37:16.983Z,0.70
2018-09-25T00:39:50.884Z,0.70
2018-09-25T00:42:24.899Z,0.70
2018-09-25T00:44:58.889Z,0.70
2018-09-25T00:47:32.761Z,0.70
2018-09-25T00:50:06.689Z,0.70
2018-09-25T00:52:40.686Z,0.70
2018-09-25T00:55:14.660Z,0.70
2018-09-25T00:57:49.307Z,0.70
2018-09-25T01:00:23.326Z,0.70
2018-09-25T01:02:57.146Z,0.70
2018-09-25T01:05:31.014Z,0.70
2018-09-25T01:08:04.818Z,0.70
2018-09-25T01:10:39.514Z,0.70
2018-09-25T01:13:13.336Z,0.70
2018-09-25T01:15:47.367Z,0.70
2018-09-25T01:18:21.246Z,0.70
2018-09-25T01:20:56.071Z,0.70
2018-09-25T01:23:30.117Z,0.70
2018-09-25T01:26:04.916Z,0.70
2018-09-25T01:28:38.726Z,0.70
2018-09-25T01:31:12.650Z,0.70
2018-09-25T01:33:46.485Z,0.70
2018-09-25T01:36:21.240Z,0.70
2018-09-25T01:38:55.017Z,0.70
2018-09-25T01:41:28.971Z,0.70
2018-09-25T01:44:02.962Z,0.70
2018-09-25T01:46:36.970Z,0.70
2018-09-25T01:49:10.807Z,0.70
2018-09-25T01:51:44.679Z,0.70
2018-09-25T01:54:19.395Z,0.70
2018-09-25T01:56:54.085Z,0.60
2018-09-25T01:59:28.062Z,0.70
2018-09-25T02:02:02.026Z,0.70
2018-09-25T02:04:35.978Z,0.70
2018-09-25T02:07:09.843Z,0.70
2018-09-25T02:09:43.785Z,0.70
2018-09-25T02:12:17.656Z,0.70
2018-09-25T02:14:51.474Z,0.70
2018-09-25T02:17:25.374Z,0.70
2018-09-25T02:19:59.302Z,0.70
2018-09-25T02:22:33.932Z,0.70
2018-09-25T02:25:08.750Z,0.70
2018-09-25T02:27:42.769Z,0.70
2018-09-25T02:30:16.714Z,0.70
2018-09-25T02:32:50.707Z,0.70
2018-09-25T02:35:25.433Z,0.70
2018-09-25T02:38:00.154Z,0.67
2018-09-25T02:40:34.947Z,0.70
2018-09-25T02:43:08.953Z,0.70
2018-09-25T02:45:42.716Z,0.70
2018-09-25T02:48:16.560Z,0.70
2018-09-25T02:50:50.506Z,0.70
2018-09-25T02:53:24.393Z,0.70
2018-09-25T02:55:58.263Z,0.70
2018-09-25T02:58:32.239Z,0.70
2018-09-25T03:01:06.891Z,0.70
2018-09-25T03:03:40.963Z,0.70
2018-09-25T03:06:14.984Z,0.70
2018-09-25T03:08:48.895Z,0.70
2018-09-25T03:11:22.748Z,0.70
2018-09-25T03:13:56.665Z,0.70
2018-09-25T03:16:30.535Z,0.70
2018-09-25T03:19:04.505Z,0.70
2018-09-25T03:21:38.306Z,0.70
2018-09-25T03:24:12.267Z,0.70
2018-09-25T03:26:47.052Z,0.70
2018-09-25T03:29:20.980Z,0.70
2018-09-25T03:31:54.837Z,0.70
2018-09-25T03:34:28.789Z,0.70
2018-09-25T03:37:02.634Z,0.70
2018-09-25T03:39:37.455Z,0.70
2018-09-25T03:42:11.401Z,0.70
2018-09-25T03:44:45.449Z,0.70
2018-09-25T03:47:19.603Z,0.70
2018-09-25T03:49:54.328Z,0.70
2018-09-25T03:52:28.877Z,0.70
2018-09-25T03:55:02.711Z,0.77
2018-09-25T03:57:38.639Z,0.80
2018-09-25T04:00:12.520Z,0.70
2018-09-25T04:02:46.497Z,0.70
2018-09-25T04:05:21.066Z,0.70
2018-09-25T04:07:55.797Z,0.70
2018-09-25T04:10:30.574Z,0.70
2018-09-25T04:13:04.514Z,0.77
2018-09-25T04:15:38.363Z,0.70
2018-09-25T04:18:12.259Z,0.70
2018-09-25T04:20:46.958Z,0.70
2018-09-25T04:23:21.023Z,0.70
2018-09-25T04:25:54.819Z,0.70
2018-09-25T04:28:28.678Z,0.70
2018-09-25T04:31:02.519Z,0.80
2018-09-25T04:33:36.448Z,0.70
2018-09-25T04:36:10.324Z,0.70
2018-09-25T04:38:45.040Z,0.70
2018-09-25T04:41:19.090Z,0.80
2018-09-25T04:43:53.041Z,0.80
2018-09-25T04:46:27.803Z,0.70
2018-09-25T04:49:01.703Z,0.80
2018-09-25T04:51:35.777Z,0.80
2018-09-25T04:54:09.662Z,0.70
2018-09-25T04:56:43.540Z,0.80
2018-09-25T04:59:17.596Z,0.80
2018-09-25T05:01:51.575Z,0.70
2018-09-25T05:04:26.238Z,0.70
2018-09-25T05:07:00.343Z,0.80
2018-09-25T05:09:34.260Z,0.70
2018-09-25T05:12:08.130Z,0.80
2018-09-25T05:14:42.945Z,0.80
2018-09-25T05:17:16.792Z,0.80
2018-09-25T05:19:50.654Z,0.73
2018-09-25T05:22:24.504Z,0.80
2018-09-25T05:24:58.614Z,0.80
2018-09-25T05:27:32.531Z,0.77
2018-09-25T05:30:06.490Z,0.77
2018-09-25T05:32:40.795Z,0.80
2018-09-25T05:35:14.725Z,0.80
2018-09-25T05:37:48.658Z,0.73
2018-09-25T05:40:23.455Z,0.70
2018-09-25T05:42:57.362Z,0.80
2018-09-25T05:45:31.365Z,0.80
2018-09-25T05:48:05.270Z,0.70
2018-09-25T05:50:39.077Z,0.80
2018-09-25T05:53:12.989Z,0.80
2018-09-25T05:55:47.046Z,0.80
2018-09-25T05:58:21.036Z,0.80
2018-09-25T06:00:55.036Z,0.80
2018-09-25T06:03:28.830Z,0.80
2018-09-25T06:06:02.804Z,0.80
2018-09-25T06:08:36.774Z,0.80
2018-09-25T06:11:10.849Z,0.70
2018-09-25T06:13:44.684Z,0.70
2018-09-25T06:16:18.709Z,0.73
2018-09-25T06:18:52.610Z,0.80
2018-09-25T06:21:26.634Z,0.80
2018-09-25T06:24:00.461Z,0.80
2018-09-25T06:26:35.033Z,0.70
2018-09-25T06:29:09.793Z,0.80
2018-09-25T06:31:43.832Z,0.70
2018-09-25T06:34:18.567Z,0.80
2018-09-25T06:36:53.369Z,0.77
2018-09-25T06:39:27.365Z,0.70
2018-09-25T06:42:01.402Z,0.80
2018-09-25T06:44:36.145Z,0.80
2018-09-25T06:47:10.843Z,0.70
2018-09-25T06:49:44.752Z,0.80
2018-09-25T06:52:18.595Z,0.80
2018-09-25T06:54:53.237Z,0.80
2018-09-25T06:57:27.941Z,0.70
2018-09-25T07:00:02.722Z,0.80
2018-09-25T07:02:36.623Z,0.70
2018-09-25T07:05:10.583Z,0.80
2018-09-25T07:07:44.585Z,0.70
2018-09-25T07:10:18.658Z,0.70
2018-09-25T07:12:52.405Z,0.70
2018-09-25T07:15:26.270Z,0.77
2018-09-25T07:18:00.371Z,0.70
2018-09-25T07:20:34.140Z,0.70
2018-09-25T07:23:08.077Z,0.70
2018-09-25T07:25:41.897Z,0.80
2018-09-25T07:28:15.862Z,0.70
2018-09-25T07:30:50.581Z,0.80
2018-09-25T07:33:24.564Z,0.80
2018-09-25T07:35:58.546Z,0.80
2018-09-25T07:38:32.512Z,0.70
2018-09-25T07:41:06.308Z,0.70
2018-09-25T07:43:40.346Z,0.70
2018-09-25T07:46:14.284Z,0.70
2018-09-25T07:48:48.278Z,0.70
2018-09-25T07:51:22.911Z,0.70
2018-09-25T07:53:57.608Z,0.70
2018-09-25T07:56:31.461Z,0.73
2018-09-25T07:59:05.420Z,0.70
2018-09-25T08:01:39.454Z,0.70
2018-09-25T08:04:13.344Z,0.70
2018-09-25T08:06:47.344Z,0.70
2018-09-25T08:09:21.246Z,0.60
2018-09-25T08:11:55.121Z,0.60
2018-09-25T08:14:28.880Z,0.70
2018-09-25T08:17:02.820Z,0.70
2018-09-25T08:19:37.642Z,0.70
2018-09-25T08:22:11.464Z,0.70
2018-09-25T08:24:45.375Z,0.60
2018-09-25T08:27:20.135Z,0.70
2018-09-25T08:29:54.158Z,0.70
2018-09-25T08:32:28.078Z,0.60
2018-09-25T08:35:02.224Z,0.70
2018-09-25T08:37:36.948Z,0.70
2018-09-25T08:40:11.584Z,0.60
2018-09-25T08:42:46.215Z,0.70
2018-09-25T08:45:21.116Z,0.70
2018-09-25T08:47:54.870Z,0.60
2018-09-25T08:50:28.876Z,0.70
2018-09-25T08:53:02.690Z,0.70
2018-09-25T08:55:36.599Z,0.70
2018-09-25T08:58:10.575Z,0.70
2018-09-25T09:00:45.284Z,0.70
2018-09-25T09:03:19.239Z,0.70
2018-09-25T09:05:53.091Z,0.70
2018-09-25T09:08:26.988Z,0.70
2018-09-25T09:11:00.775Z,0.70
2018-09-25T09:13:34.700Z,0.70
2018-09-25T09:16:08.515Z,0.70
2018-09-25T09:18:43.326Z,0.60
2018-09-25T09:21:17.236Z,0.70
2018-09-25T09:23:51.919Z,0.60
2018-09-25T09:26:25.866Z,0.60
2018-09-25T09:28:59.876Z,0.70
2018-09-25T09:31:33.855Z,0.70
2018-09-25T09:34:07.810Z,0.60
2018-09-25T09:36:41.698Z,0.70
2018-09-25T09:39:16.311Z,0.60
2018-09-25T09:41:50.214Z,0.60
2018-09-25T09:44:24.099Z,0.60
2018-09-25T09:46:58.046Z,0.70
2018-09-25T09:49:32.050Z,0.60
2018-09-25T09:52:06.732Z,0.60
2018-09-25T09:54:41.104Z,0.70
2018-09-25T09:57:14.925Z,0.70
2018-09-25T09:59:48.846Z,0.70
2018-09-25T10:02:22.821Z,0.60
2018-09-25T10:04:58.660Z,0.60
2018-09-25T10:07:32.682Z,0.60
2018-09-25T10:10:06.598Z,0.60
2018-09-25T10:12:41.382Z,0.60
2018-09-25T10:15:15.360Z,0.60
2018-09-25T10:17:49.202Z,0.60
2018-09-25T10:20:23.150Z,0.60
2018-09-25T10:22:57.702Z,0.60
2018-09-25T10:25:31.638Z,0.60
2018-09-25T10:28:05.445Z,0.60
2018-09-25T10:30:40.045Z,0.60
2018-09-25T10:33:14.003Z,0.60
2018-09-25T10:35:48.543Z,0.60
2018-09-25T10:38:22.421Z,0.60
2018-09-25T10:40:57.198Z,0.60
2018-09-25T10:43:31.172Z,0.60
2018-09-25T10:46:05.341Z,0.70
2018-09-25T10:48:39.960Z,0.60
2018-09-25T10:51:13.890Z,0.60
2018-09-25T10:53:48.445Z,0.60
2018-09-25T10:56:22.505Z,0.60
2018-09-25T10:58:56.478Z,0.50
2018-09-25T11:01:30.368Z,0.60
2018-09-25T11:04:04.216Z,0.60
2018-09-25T11:06:38.241Z,0.60
2018-09-25T11:09:12.956Z,0.60
2018-09-25T11:11:50.810Z,0.60
2018-09-25T11:14:24.783Z,0.60
2018-09-25T11:16:58.768Z,0.50
2018-09-25T11:19:32.683Z,0.60
2018-09-25T11:22:07.936Z,0.60
2018-09-25T11:24:41.914Z,0.60
2018-09-25T11:27:15.771Z,0.60
2018-09-25T11:29:49.724Z,0.50
2018-09-25T11:32:23.847Z,0.60
2018-09-25T11:34:57.794Z,0.60
2018-09-25T11:37:33.297Z,0.60
2018-09-25T11:40:07.224Z,0.60
2018-09-25T11:42:41.066Z,0.40
2018-09-25T11:45:15.786Z,0.50
2018-09-25T11:47:50.409Z,0.60
2018-09-25T11:50:24.377Z,0.50
2018-09-25T11:52:58.192Z,0.50
2018-09-25T11:55:32.754Z,0.50
2018-09-25T11:58:06.645Z,0.50
2018-09-25T12:00:40.435Z,0.50
2018-09-25T12:03:14.285Z,0.60
2018-09-25T12:05:51.725Z,0.60
2018-09-25T12:08:25.573Z,0.60
2018-09-25T12:10:59.535Z,0.60
2018-09-25T12:13:33.352Z,0.60
2018-09-25T12:16:07.307Z,0.50
2018-09-25T12:18:41.992Z,0.50
2018-09-25T12:21:15.885Z,0.50
2018-09-25T12:23:49.885Z,0.50
2018-09-25T12:26:23.919Z,0.50
2018-09-25T12:28:57.895Z,0.40
2018-09-25T12:31:32.096Z,0.50
2018-09-25T12:34:05.968Z,0.60
2018-09-25T12:36:39.810Z,0.50
2018-09-25T12:39:14.862Z,0.50
2018-09-25T12:41:49.884Z,0.50
2018-09-25T12:44:24.476Z,0.50
2018-09-25T12:46:59.222Z,0.43
2018-09-25T12:49:33.471Z,0.50
2018-09-25T12:52:08.244Z,0.50
2018-09-25T12:54:42.232Z,0.40
2018-09-25T12:57:15.978Z,0.50
2018-09-25T12:59:49.874Z,0.50
2018-09-25T13:02:23.694Z,0.40
2018-09-25T13:04:57.590Z,0.50
2018-09-25T13:07:31.604Z,0.43
2018-09-25T13:10:05.436Z,0.50
2018-09-25T13:12:39.439Z,0.50
2018-09-25T13:15:13.405Z,0.50
2018-09-25T13:17:48.146Z,0.50
2018-09-25T13:20:22.130Z,0.50
2018-09-25T13:22:56.047Z,0.50
2018-09-25T13:25:29.984Z,0.50
2018-09-25T13:28:03.894Z,0.40
2018-09-25T13:30:37.729Z,0.40
2018-09-25T13:33:13.116Z,0.50
2018-09-25T13:35:47.744Z,0.50
2018-09-25T13:38:21.512Z,0.50
2018-09-25T13:40:56.103Z,0.50
2018-09-25T13:43:31.734Z,0.40
2018-09-25T13:46:05.662Z,0.40
2018-09-25T13:48:40.282Z,0.50
2018-09-25T13:51:14.264Z,0.47
2018-09-25T13:53:48.090Z,0.40
2018-09-25T13:56:22.832Z,0.50
2018-09-25T13:58:56.743Z,0.50
2018-09-25T14:01:31.296Z,0.47
2018-09-25T14:04:05.458Z,0.40
2018-09-25T14:06:39.498Z,0.50
2018-09-25T14:09:13.492Z,0.50
2018-09-25T14:11:47.302Z,0.50
2018-09-25T14:14:21.152Z,0.40
2018-09-25T14:16:58.323Z,0.43
2018-09-25T14:19:32.217Z,0.40
2018-09-25T14:22:06.113Z,0.50
2018-09-25T14:24:40.031Z,0.40
2018-09-25T14:27:13.889Z,0.40
2018-09-25T14:29:48.673Z,0.50
2018-09-25T14:32:22.584Z,0.50
2018-09-25T14:34:57.182Z,0.50
2018-09-25T14:37:31.133Z,0.50
2018-09-25T14:40:05.088Z,0.43
2018-09-25T14:42:39.685Z,0.50
2018-09-25T14:45:13.536Z,0.50
2018-09-25T14:47:47.462Z,0.50
2018-09-25T14:50:21.209Z,0.50
2018-09-25T14:52:55.197Z,0.50
2018-09-25T14:55:29.530Z,0.60
2018-09-25T14:58:03.455Z,0.50
2018-09-25T15:00:37.419Z,0.50
2018-09-25T15:03:11.231Z,0.50
2018-09-25T15:05:45.036Z,0.60
2018-09-25T15:08:18.907Z,0.50
2018-09-25T15:10:52.992Z,0.60
2018-09-25T15:13:31.941Z,0.50
2018-09-25T15:16:05.971Z,0.60
2018-09-25T15:18:39.767Z,0.60
2018-09-25T15:21:13.699Z,0.60
2018-09-25T15:23:48.995Z,0.60
2018-09-25T15:26:22.849Z,0.60
2018-09-25T15:28:56.639Z,0.60
2018-09-25T15:31:30.666Z,0.60
2018-09-25T15:34:04.647Z,0.60
2018-09-25T15:36:39.369Z,0.60
2018-09-25T15:39:15.101Z,0.60
2018-09-25T15:41:49.008Z,0.60
2018-09-25T15:44:22.941Z,0.60
2018-09-25T15:46:56.788Z,0.60
2018-09-25T15:49:30.797Z,0.60
2018-09-25T15:52:04.751Z,0.50
2018-09-25T15:54:38.747Z,0.50
2018-09-25T15:57:12.653Z,0.60
2018-09-25T15:59:46.521Z,0.60
2018-09-25T16:02:20.382Z,0.60
2018-09-25T16:04:54.272Z,0.60
2018-09-25T16:07:28.153Z,0.60
2018-09-25T16:10:01.945Z,0.60
2018-09-25T16:12:37.126Z,0.60
2018-09-25T16:15:11.164Z,0.60
2018-09-25T16:17:45.127Z,0.60
2018-09-25T16:20:18.968Z,0.60
2018-09-25T16:22:52.816Z,0.60
2018-09-25T16:25:27.427Z,0.60
2018-09-25T16:28:01.989Z,0.60
2018-09-25T16:30:35.812Z,0.60
2018-09-25T16:33:09.594Z,0.60
2018-09-25T16:35:43.577Z,0.60
2018-09-25T16:38:17.516Z,0.60
2018-09-25T16:40:51.573Z,0.60
2018-09-25T16:43:25.377Z,0.70
2018-09-25T16:45:59.408Z,0.70
2018-09-25T16:48:33.383Z,0.60
2018-09-25T16:51:08.144Z,0.60
2018-09-25T16:53:42.118Z,0.60
2018-09-25T16:56:15.956Z,0.60
2018-09-25T16:58:49.736Z,0.60
2018-09-25T17:01:23.685Z,0.60
2018-09-25T17:03:57.549Z,0.60
2018-09-25T17:06:31.488Z,0.60
2018-09-25T17:09:05.467Z,0.60
2018-09-25T17:11:39.370Z,0.60
2018-09-25T17:14:13.336Z,0.60
2018-09-25T17:16:47.297Z,0.60
2018-09-25T17:19:21.311Z,0.60
2018-09-25T17:21:55.221Z,0.60
2018-09-25T17:24:30.240Z,0.60
2018-09-25T17:27:04.196Z,0.60
2018-09-25T17:29:38.111Z,0.60
2018-09-25T17:32:13.925Z,0.70
2018-09-25T17:34:47.944Z,0.60
2018-09-25T17:37:21.699Z,0.60
2018-09-25T17:39:55.477Z,0.60
2018-09-25T17:42:29.462Z,0.60
2018-09-25T17:45:03.421Z,0.60
2018-09-25T17:47:37.410Z,0.63
2018-09-25T17:50:11.331Z,0.70
2018-09-25T17:52:45.229Z,0.60
2018-09-25T17:55:19.003Z,0.70
2018-09-25T17:57:52.784Z,0.60
2018-09-25T18:00:26.755Z,0.70
2018-09-25T18:03:00.680Z,0.70
2018-09-25T18:05:38.355Z,0.60
2018-09-25T18:08:12.337Z,0.60
2018-09-25T18:10:46.269Z,0.60
2018-09-25T18:13:20.143Z,0.70
2018-09-25T18:15:54.100Z,0.70
2018-09-25T18:18:28.079Z,0.60
2018-09-25T18:21:02.017Z,0.70
2018-09-25T18:23:35.977Z,0.70
2018-09-25T18:26:10.689Z,0.70
2018-09-25T18:28:44.630Z,0.70
2018-09-25T18:31:18.617Z,0.70
2018-09-25T18:33:52.616Z,0.60
2018-09-25T18:36:26.444Z,0.70
2018-09-25T18:39:01.087Z,0.70
2018-09-25T18:41:34.932Z,0.70
2018-09-25T18:44:08.948Z,0.70
2018-09-25T18:46:42.780Z,0.70
2018-09-25T18:49:16.601Z,0.70
2018-09-25T18:51:50.411Z,0.70
2018-09-25T18:54:25.059Z,0.70
2018-09-25T18:56:58.989Z,0.67
2018-09-25T18:59:32.983Z,0.70
2018-09-25T19:02:07.634Z,0.70
2018-09-25T19:04:41.632Z,0.70
2018-09-25T19:07:15.618Z,0.70
2018-09-25T19:09:49.528Z,0.70
2018-09-25T19:12:23.534Z,0.70
2018-09-25T19:14:58.184Z,0.70
2018-09-25T19:17:32.148Z,0.70
2018-09-25T19:20:06.037Z,0.70
2018-09-25T19:22:40.032Z,0.80
2018-09-25T19:25:13.988Z,0.70
2018-09-25T19:27:48.763Z,0.70
2018-09-25T19:30:22.628Z,0.70
2018-09-25T19:32:56.498Z,0.70
2018-09-25T19:35:30.309Z,0.70
2018-09-25T19:38:04.261Z,0.70
2018-09-25T19:40:38.123Z,0.70
2018-09-25T19:43:11.929Z,0.70
2018-09-25T19:45:45.827Z,0.70
2018-09-25T19:48:20.714Z,0.70
2018-09-25T19:50:54.592Z,0.70
2018-09-25T19:53:28.572Z,0.70
2018-09-25T19:56:02.525Z,0.70
2018-09-25T19:58:36.421Z,0.70
2018-09-25T20:01:10.298Z,0.60
2018-09-25T20:03:44.115Z,0.70
2018-09-25T20:06:18.093Z,0.60
2018-09-25T20:08:52.813Z,0.63
2018-09-25T20:11:26.762Z,0.70
2018-09-25T20:14:00.673Z,0.70
2018-09-25T20:16:34.665Z,0.70
2018-09-25T20:19:08.495Z,0.70
2018-09-25T20:21:42.382Z,0.70
2018-09-25T20:24:16.204Z,0.60
2018-09-25T20:26:50.162Z,0.70
2018-09-25T20:29:24.749Z,0.70
2018-09-25T20:31:58.662Z,0.70
2018-09-25T20:34:32.649Z,0.70
2018-09-25T20:37:06.622Z,0.70
2018-09-25T20:39:40.565Z,0.70
2018-09-25T20:42:14.403Z,0.70
2018-09-25T20:44:48.333Z,0.70
2018-09-25T20:47:22.318Z,0.70
2018-09-25T20:49:56.252Z,0.70
2018-09-25T20:52:30.246Z,0.80
2018-09-25T20:55:04.165Z,0.80
2018-09-25T20:57:37.918Z,0.70
2018-09-25T21:00:12.645Z,0.70
2018-09-25T21:02:47.434Z,0.70
2018-09-25T21:05:21.284Z,0.70
2018-09-25T21:07:55.262Z,0.70
2018-09-25T21:10:29.090Z,0.70
2018-09-25T21:13:02.898Z,0.70
2018-09-25T21:15:36.850Z,0.70
2018-09-25T21:18:10.766Z,0.70
2018-09-25T21:20:44.578Z,0.70
2018-09-25T21:23:18.497Z,0.80
2018-09-25T21:25:52.506Z,0.70
2018-09-25T21:28:26.273Z,0.70
2018-09-25T21:31:00.075Z,0.80
2018-09-25T21:33:33.928Z,0.70
2018-09-25T21:36:07.900Z,0.70
2018-09-25T21:38:41.650Z,0.70
2018-09-25T21:41:15.465Z,0.70
2018-09-25T21:43:49.443Z,0.70
2018-09-25T21:46:23.236Z,0.80
2018-09-25T21:48:57.199Z,0.70
2018-09-25T21:51:31.305Z,0.70
2018-09-25T21:54:04.805Z,0.70
2018-09-25T21:56:38.622Z,0.70
2018-09-25T21:59:12.484Z,0.70
2018-09-25T22:01:46.420Z,0.70
2018-09-25T22:04:20.405Z,0.70
2018-09-25T22:06:54.354Z,0.70
2018-09-25T22:09:28.336Z,0.70
2018-09-25T22:12:02.301Z,0.70
2018-09-25T22:14:36.281Z,0.80
2018-09-25T22:17:10.111Z,0.70
2018-09-25T22:19:43.911Z,0.70
2018-09-25T22:22:17.869Z,0.70
2018-09-25T22:24:51.922Z,0.70
2018-09-25T22:27:25.802Z,0.70
2018-09-25T22:29:59.696Z,0.60
2018-09-25T22:32:33.653Z,0.70
2018-09-25T22:35:07.420Z,0.80
2018-09-25T22:37:41.341Z,0.70
2018-09-25T22:40:15.288Z,0.70
2018-09-25T22:42:49.323Z,0.70
2018-09-25T22:45:23.259Z,0.80
2018-09-25T22:47:57.177Z,0.70
2018-09-25T22:50:31.061Z,0.80
2018-09-25T22:53:04.996Z,0.70
2018-09-25T22:55:38.820Z,0.73
2018-09-25T22:58:12.736Z,0.80
2018-09-25T23:00:46.661Z,0.70
2018-09-25T23:03:20.566Z,0.70
2018-09-25T23:05:54.687Z,0.70
2018-09-25T23:08:28.557Z,0.70
2018-09-25T23:11:02.401Z,0.70
2018-09-25T23:13:36.184Z,0.73
2018-09-25T23:16:09.988Z,0.70
2018-09-25T23:18:43.829Z,0.70
2018-09-25T23:21:17.668Z,0.70
2018-09-25T23:23:51.637Z,0.70
2018-09-25T23:26:25.407Z,0.80
2018-09-25T23:28:59.412Z,0.70
2018-09-25T23:31:33.318Z,0.70
2018-09-25T23:34:07.134Z,0.70
2018-09-25T23:36:41.150Z,0.70
2018-09-25T23:39:09.318Z,0.70
2018-09-25T23:41:37.557Z,0.70
2018-09-25T23:44:05.812Z,0.70
2018-09-25T23:46:34.078Z,0.70
2018-09-25T23:49:02.326Z,0.70
2018-09-25T23:51:30.537Z,0.70
2018-09-25T23:53:58.755Z,0.70
2018-09-25T23:56:27.054Z,0.73
2018-09-25T23:58:55.252Z,0.70
